sensor_id;sensor_type;location;lat;lon;timestamp;P1;durP1;ratioP1;P2;durP2;ratioP2
38725;SDS011;24474;48.906;8.808;2024-02-23T00:00:52;2.53;;;0.55;;
38725;SDS011;24474;48.906;8.808;2024-02-23T00:03:18;2.25;;;0.68;;
38725;SDS011;24474;48.906;8.808;2024-02-23T00:05:43;3.45;;;0.77;;
38725;SDS011;24474;48.906;8.808;2024-02-23T00:08:09;2.58;;;0.63;;
38725;SDS011;24474;48.906;8.808;2024-02-23T00:10:35;2.40;;;0.73;;
38725;SDS011;24474;48.906;8.808;2024-02-23T00:13:00;3.67;;;0.73;;
38725;SDS011;24474;48.906;8.808;2024-02-23T00:15:26;3.05;;;0.70;;
38725;SDS011;24474;48.906;8.808;2024-02-23T00:17:52;3.05;;;0.50;;
38725;SDS011;24474;48.906;8.808;2024-02-23T00:20:17;3.10;;;0.63;;
38725;SDS011;24474;48.906;8.808;2024-02-23T00:22:43;3.10;;;1.00;;
38725;SDS011;24474;48.906;8.808;2024-02-23T00:25:09;4.63;;;0.80;;
38725;SDS011;24474;48.906;8.808;2024-02-23T00:27:34;3.65;;;0.95;;
38725;SDS011;24474;48.906;8.808;2024-02-23T00:30:00;4.65;;;0.75;;
38725;SDS011;24474;48.906;8.808;2024-02-23T00:32:25;4.95;;;0.80;;
38725;SDS011;24474;48.906;8.808;2024-02-23T00:34:51;3.05;;;0.60;;
38725;SDS011;24474;48.906;8.808;2024-02-23T00:37:16;3.05;;;0.80;;
38725;SDS011;24474;48.906;8.808;2024-02-23T00:39:42;4.85;;;0.77;;
38725;SDS011;24474;48.906;8.808;2024-02-23T00:42:08;2.70;;;0.70;;
38725;SDS011;24474;48.906;8.808;2024-02-23T00:44:33;4.72;;;1.00;;
38725;SDS011;24474;48.906;8.808;2024-02-23T00:46:59;4.82;;;0.82;;
38725;SDS011;24474;48.906;8.808;2024-02-23T00:49:27;3.60;;;0.75;;
38725;SDS011;24474;48.906;8.808;2024-02-23T00:51:53;3.15;;;0.90;;
38725;SDS011;24474;48.906;8.808;2024-02-23T00:54:20;2.00;;;0.80;;
38725;SDS011;24474;48.906;8.808;2024-02-23T00:56:46;2.78;;;0.60;;
38725;SDS011;24474;48.906;8.808;2024-02-23T00:59:11;3.22;;;0.82;;
38725;SDS011;24474;48.906;8.808;2024-02-23T01:01:37;2.58;;;0.82;;
38725;SDS011;24474;48.906;8.808;2024-02-23T01:04:03;5.20;;;1.10;;
38725;SDS011;24474;48.906;8.808;2024-02-23T01:06:28;4.05;;;0.80;;
38725;SDS011;24474;48.906;8.808;2024-02-23T01:08:54;3.15;;;0.80;;
38725;SDS011;24474;48.906;8.808;2024-02-23T01:11:20;5.03;;;0.90;;
38725;SDS011;24474;48.906;8.808;2024-02-23T01:13:45;3.38;;;0.73;;
38725;SDS011;24474;48.906;8.808;2024-02-23T01:16:11;3.25;;;0.80;;
38725;SDS011;24474;48.906;8.808;2024-02-23T01:18:36;4.18;;;0.75;;
38725;SDS011;24474;48.906;8.808;2024-02-23T01:21:02;2.33;;;0.70;;
38725;SDS011;24474;48.906;8.808;2024-02-23T01:23:28;5.60;;;0.60;;
38725;SDS011;24474;48.906;8.808;2024-02-23T01:25:54;5.15;;;0.98;;
38725;SDS011;24474;48.906;8.808;2024-02-23T01:28:19;2.42;;;0.88;;
38725;SDS011;24474;48.906;8.808;2024-02-23T01:30:45;5.40;;;1.05;;
38725;SDS011;24474;48.906;8.808;2024-02-23T01:33:10;4.35;;;0.95;;
38725;SDS011;24474;48.906;8.808;2024-02-23T01:35:36;4.00;;;1.00;;
38725;SDS011;24474;48.906;8.808;2024-02-23T01:38:02;5.47;;;0.80;;
38725;SDS011;24474;48.906;8.808;2024-02-23T01:40:27;1.15;;;0.60;;
38725;SDS011;24474;48.906;8.808;2024-02-23T01:43:05;3.85;;;0.60;;
38725;SDS011;24474;48.906;8.808;2024-02-23T01:45:32;4.00;;;0.70;;
38725;SDS011;24474;48.906;8.808;2024-02-23T01:47:58;1.92;;;0.65;;
38725;SDS011;24474;48.906;8.808;2024-02-23T01:50:24;4.07;;;0.68;;
38725;SDS011;24474;48.906;8.808;2024-02-23T01:52:50;2.55;;;0.88;;
38725;SDS011;24474;48.906;8.808;2024-02-23T01:55:18;3.90;;;0.80;;
38725;SDS011;24474;48.906;8.808;2024-02-23T01:57:47;1.90;;;0.70;;
38725;SDS011;24474;48.906;8.808;2024-02-23T02:00:15;2.53;;;0.70;;
38725;SDS011;24474;48.906;8.808;2024-02-23T02:02:43;4.00;;;0.80;;
38725;SDS011;24474;48.906;8.808;2024-02-23T02:05:09;2.55;;;0.50;;
38725;SDS011;24474;48.906;8.808;2024-02-23T02:07:36;4.70;;;0.70;;
38725;SDS011;24474;48.906;8.808;2024-02-23T02:10:03;1.88;;;0.82;;
38725;SDS011;24474;48.906;8.808;2024-02-23T02:12:29;1.90;;;0.50;;
38725;SDS011;24474;48.906;8.808;2024-02-23T02:14:55;2.42;;;0.68;;
38725;SDS011;24474;48.906;8.808;2024-02-23T02:17:21;2.30;;;0.60;;
38725;SDS011;24474;48.906;8.808;2024-02-23T02:19:47;3.40;;;0.80;;
38725;SDS011;24474;48.906;8.808;2024-02-23T02:22:13;2.92;;;0.60;;
38725;SDS011;24474;48.906;8.808;2024-02-23T02:24:39;1.38;;;0.57;;
38725;SDS011;24474;48.906;8.808;2024-02-23T02:27:07;4.20;;;0.60;;
38725;SDS011;24474;48.906;8.808;2024-02-23T02:29:33;1.63;;;0.60;;
38725;SDS011;24474;48.906;8.808;2024-02-23T02:32:00;2.90;;;0.60;;
38725;SDS011;24474;48.906;8.808;2024-02-23T02:34:25;4.82;;;0.65;;
38725;SDS011;24474;48.906;8.808;2024-02-23T02:36:51;2.97;;;0.70;;
38725;SDS011;24474;48.906;8.808;2024-02-23T02:39:17;2.85;;;0.80;;
38725;SDS011;24474;48.906;8.808;2024-02-23T02:41:42;1.55;;;0.60;;
38725;SDS011;24474;48.906;8.808;2024-02-23T02:44:08;3.00;;;0.70;;
38725;SDS011;24474;48.906;8.808;2024-02-23T02:46:34;1.58;;;0.70;;
38725;SDS011;24474;48.906;8.808;2024-02-23T02:49:00;2.75;;;0.80;;
38725;SDS011;24474;48.906;8.808;2024-02-23T02:51:26;1.88;;;0.85;;
38725;SDS011;24474;48.906;8.808;2024-02-23T02:53:52;2.67;;;0.80;;
38725;SDS011;24474;48.906;8.808;2024-02-23T02:56:18;1.83;;;0.60;;
38725;SDS011;24474;48.906;8.808;2024-02-23T02:58:43;3.60;;;0.63;;
38725;SDS011;24474;48.906;8.808;2024-02-23T03:01:09;1.75;;;0.60;;
38725;SDS011;24474;48.906;8.808;2024-02-23T03:03:35;1.70;;;0.65;;
38725;SDS011;24474;48.906;8.808;2024-02-23T03:06:00;1.60;;;0.70;;
38725;SDS011;24474;48.906;8.808;2024-02-23T03:08:26;3.80;;;0.68;;
38725;SDS011;24474;48.906;8.808;2024-02-23T03:10:51;1.83;;;0.52;;
38725;SDS011;24474;48.906;8.808;2024-02-23T03:13:17;3.05;;;0.60;;
38725;SDS011;24474;48.906;8.808;2024-02-23T03:15:42;2.85;;;0.77;;
38725;SDS011;24474;48.906;8.808;2024-02-23T03:18:08;4.03;;;0.70;;
38725;SDS011;24474;48.906;8.808;2024-02-23T03:20:35;2.50;;;0.60;;
38725;SDS011;24474;48.906;8.808;2024-02-23T03:23:00;3.50;;;0.80;;
38725;SDS011;24474;48.906;8.808;2024-02-23T03:25:28;1.92;;;0.52;;
38725;SDS011;24474;48.906;8.808;2024-02-23T03:27:54;2.35;;;0.80;;
38725;SDS011;24474;48.906;8.808;2024-02-23T03:30:20;2.00;;;0.60;;
38725;SDS011;24474;48.906;8.808;2024-02-23T03:32:45;3.65;;;0.60;;
38725;SDS011;24474;48.906;8.808;2024-02-23T03:35:12;2.33;;;0.70;;
38725;SDS011;24474;48.906;8.808;2024-02-23T03:37:37;3.03;;;0.60;;
38725;SDS011;24474;48.906;8.808;2024-02-23T03:40:04;1.20;;;0.65;;
38725;SDS011;24474;48.906;8.808;2024-02-23T03:42:30;2.53;;;0.70;;
38725;SDS011;24474;48.906;8.808;2024-02-23T03:44:56;2.08;;;0.60;;
38725;SDS011;24474;48.906;8.808;2024-02-23T03:47:21;1.45;;;0.63;;
38725;SDS011;24474;48.906;8.808;2024-02-23T03:49:47;2.30;;;0.68;;
38725;SDS011;24474;48.906;8.808;2024-02-23T03:52:13;3.78;;;0.80;;
38725;SDS011;24474;48.906;8.808;2024-02-23T03:54:38;2.28;;;0.60;;
38725;SDS011;24474;48.906;8.808;2024-02-23T03:57:04;4.57;;;0.60;;
38725;SDS011;24474;48.906;8.808;2024-02-23T03:59:30;2.75;;;0.80;;
38725;SDS011;24474;48.906;8.808;2024-02-23T04:01:55;4.00;;;0.80;;
38725;SDS011;24474;48.906;8.808;2024-02-23T04:04:21;2.85;;;0.70;;
38725;SDS011;24474;48.906;8.808;2024-02-23T04:06:47;6.72;;;0.85;;
38725;SDS011;24474;48.906;8.808;2024-02-23T04:09:12;3.95;;;0.80;;
38725;SDS011;24474;48.906;8.808;2024-02-23T04:11:38;2.15;;;0.90;;
38725;SDS011;24474;48.906;8.808;2024-02-23T04:14:04;2.17;;;0.57;;
38725;SDS011;24474;48.906;8.808;2024-02-23T04:16:33;1.90;;;0.70;;
38725;SDS011;24474;48.906;8.808;2024-02-23T04:18:59;3.10;;;0.85;;
38725;SDS011;24474;48.906;8.808;2024-02-23T04:21:25;3.85;;;0.82;;
38725;SDS011;24474;48.906;8.808;2024-02-23T04:23:51;2.30;;;0.65;;
38725;SDS011;24474;48.906;8.808;2024-02-23T04:26:16;2.92;;;0.90;;
38725;SDS011;24474;48.906;8.808;2024-02-23T04:28:42;4.25;;;0.80;;
38725;SDS011;24474;48.906;8.808;2024-02-23T04:31:09;1.85;;;0.55;;
38725;SDS011;24474;48.906;8.808;2024-02-23T04:33:35;1.90;;;0.60;;
38725;SDS011;24474;48.906;8.808;2024-02-23T04:36:01;3.25;;;0.77;;
38725;SDS011;24474;48.906;8.808;2024-02-23T04:38:28;3.83;;;0.80;;
38725;SDS011;24474;48.906;8.808;2024-02-23T04:40:57;3.47;;;0.70;;
38725;SDS011;24474;48.906;8.808;2024-02-23T04:43:23;2.35;;;0.65;;
38725;SDS011;24474;48.906;8.808;2024-02-23T04:45:50;2.47;;;0.80;;
38725;SDS011;24474;48.906;8.808;2024-02-23T04:48:16;2.28;;;0.80;;
38725;SDS011;24474;48.906;8.808;2024-02-23T04:50:42;2.95;;;0.80;;
38725;SDS011;24474;48.906;8.808;2024-02-23T04:53:07;5.90;;;0.90;;
38725;SDS011;24474;48.906;8.808;2024-02-23T04:55:33;1.70;;;0.52;;
38725;SDS011;24474;48.906;8.808;2024-02-23T04:57:58;3.30;;;0.82;;
38725;SDS011;24474;48.906;8.808;2024-02-23T05:00:24;5.82;;;1.20;;
38725;SDS011;24474;48.906;8.808;2024-02-23T05:02:53;3.17;;;0.90;;
38725;SDS011;24474;48.906;8.808;2024-02-23T05:05:19;5.07;;;1.35;;
38725;SDS011;24474;48.906;8.808;2024-02-23T05:07:46;3.78;;;1.02;;
38725;SDS011;24474;48.906;8.808;2024-02-23T05:10:12;5.70;;;0.85;;
38725;SDS011;24474;48.906;8.808;2024-02-23T05:12:38;4.35;;;2.40;;
38725;SDS011;24474;48.906;8.808;2024-02-23T05:15:03;6.78;;;3.47;;
38725;SDS011;24474;48.906;8.808;2024-02-23T05:17:29;4.18;;;1.10;;
38725;SDS011;24474;48.906;8.808;2024-02-23T05:19:55;1.98;;;0.70;;
38725;SDS011;24474;48.906;8.808;2024-02-23T05:22:21;3.38;;;1.05;;
38725;SDS011;24474;48.906;8.808;2024-02-23T05:24:46;2.13;;;0.70;;
38725;SDS011;24474;48.906;8.808;2024-02-23T05:27:12;2.17;;;0.70;;
38725;SDS011;24474;48.906;8.808;2024-02-23T05:29:37;2.42;;;0.68;;
38725;SDS011;24474;48.906;8.808;2024-02-23T05:32:03;4.35;;;0.93;;
38725;SDS011;24474;48.906;8.808;2024-02-23T05:34:29;2.55;;;0.70;;
38725;SDS011;24474;48.906;8.808;2024-02-23T05:36:55;1.90;;;0.80;;
38725;SDS011;24474;48.906;8.808;2024-02-23T05:39:21;1.63;;;0.68;;
38725;SDS011;24474;48.906;8.808;2024-02-23T05:41:46;2.40;;;0.82;;
38725;SDS011;24474;48.906;8.808;2024-02-23T05:44:12;2.60;;;0.75;;
38725;SDS011;24474;48.906;8.808;2024-02-23T05:46:38;1.90;;;0.70;;
38725;SDS011;24474;48.906;8.808;2024-02-23T05:49:04;4.70;;;0.90;;
38725;SDS011;24474;48.906;8.808;2024-02-23T05:51:29;2.35;;;0.80;;
38725;SDS011;24474;48.906;8.808;2024-02-23T05:53:55;4.18;;;0.80;;
38725;SDS011;24474;48.906;8.808;2024-02-23T05:56:22;4.22;;;0.93;;
38725;SDS011;24474;48.906;8.808;2024-02-23T05:58:58;2.97;;;0.80;;
38725;SDS011;24474;48.906;8.808;2024-02-23T06:01:23;1.92;;;0.70;;
38725;SDS011;24474;48.906;8.808;2024-02-23T06:03:49;5.85;;;1.05;;
38725;SDS011;24474;48.906;8.808;2024-02-23T06:06:15;2.60;;;0.73;;
38725;SDS011;24474;48.906;8.808;2024-02-23T06:08:40;2.40;;;0.73;;
38725;SDS011;24474;48.906;8.808;2024-02-23T06:11:06;4.10;;;1.13;;
38725;SDS011;24474;48.906;8.808;2024-02-23T06:13:34;1.85;;;0.50;;
38725;SDS011;24474;48.906;8.808;2024-02-23T06:16:00;2.75;;;0.90;;
38725;SDS011;24474;48.906;8.808;2024-02-23T06:18:26;2.33;;;0.85;;
38725;SDS011;24474;48.906;8.808;2024-02-23T06:20:51;1.33;;;0.75;;
38725;SDS011;24474;48.906;8.808;2024-02-23T06:23:17;1.15;;;0.70;;
38725;SDS011;24474;48.906;8.808;2024-02-23T06:25:43;2.95;;;0.90;;
38725;SDS011;24474;48.906;8.808;2024-02-23T06:28:12;2.55;;;0.90;;
38725;SDS011;24474;48.906;8.808;2024-02-23T06:30:41;2.97;;;0.90;;
38725;SDS011;24474;48.906;8.808;2024-02-23T06:33:06;3.00;;;0.90;;
38725;SDS011;24474;48.906;8.808;2024-02-23T06:35:32;2.67;;;0.73;;
38725;SDS011;24474;48.906;8.808;2024-02-23T06:37:58;2.08;;;0.60;;
38725;SDS011;24474;48.906;8.808;2024-02-23T06:40:24;3.65;;;0.77;;
38725;SDS011;24474;48.906;8.808;2024-02-23T06:42:51;3.58;;;0.73;;
38725;SDS011;24474;48.906;8.808;2024-02-23T06:45:17;2.20;;;0.60;;
38725;SDS011;24474;48.906;8.808;2024-02-23T06:47:44;4.03;;;0.80;;
38725;SDS011;24474;48.906;8.808;2024-02-23T06:50:10;4.10;;;0.90;;
38725;SDS011;24474;48.906;8.808;2024-02-23T06:52:35;1.95;;;0.60;;
38725;SDS011;24474;48.906;8.808;2024-02-23T06:55:03;1.58;;;0.50;;
38725;SDS011;24474;48.906;8.808;2024-02-23T06:57:33;5.05;;;0.80;;
38725;SDS011;24474;48.906;8.808;2024-02-23T06:59:59;2.30;;;0.60;;
38725;SDS011;24474;48.906;8.808;2024-02-23T07:02:25;1.15;;;0.60;;
38725;SDS011;24474;48.906;8.808;2024-02-23T07:04:51;1.98;;;0.82;;
38725;SDS011;24474;48.906;8.808;2024-02-23T07:07:19;1.00;;;0.63;;
38725;SDS011;24474;48.906;8.808;2024-02-23T07:09:45;6.50;;;1.10;;
38725;SDS011;24474;48.906;8.808;2024-02-23T07:12:10;4.50;;;1.42;;
38725;SDS011;24474;48.906;8.808;2024-02-23T07:14:38;2.75;;;1.60;;
38725;SDS011;24474;48.906;8.808;2024-02-23T07:17:04;3.13;;;1.35;;
38725;SDS011;24474;48.906;8.808;2024-02-23T07:19:30;1.15;;;0.80;;
38725;SDS011;24474;48.906;8.808;2024-02-23T07:21:55;2.55;;;1.20;;
38725;SDS011;24474;48.906;8.808;2024-02-23T07:24:21;3.67;;;1.10;;
38725;SDS011;24474;48.906;8.808;2024-02-23T07:26:46;2.28;;;1.30;;
38725;SDS011;24474;48.906;8.808;2024-02-23T07:29:12;2.85;;;0.93;;
38725;SDS011;24474;48.906;8.808;2024-02-23T07:31:38;3.55;;;1.25;;
38725;SDS011;24474;48.906;8.808;2024-02-23T07:34:04;2.35;;;0.98;;
38725;SDS011;24474;48.906;8.808;2024-02-23T07:36:29;4.32;;;0.90;;
38725;SDS011;24474;48.906;8.808;2024-02-23T07:38:55;4.25;;;0.90;;
38725;SDS011;24474;48.906;8.808;2024-02-23T07:41:21;1.75;;;0.90;;
38725;SDS011;24474;48.906;8.808;2024-02-23T07:43:46;3.05;;;0.85;;
38725;SDS011;24474;48.906;8.808;2024-02-23T07:46:12;2.28;;;0.85;;
38725;SDS011;24474;48.906;8.808;2024-02-23T07:48:39;3.25;;;1.08;;
38725;SDS011;24474;48.906;8.808;2024-02-23T07:51:07;3.95;;;0.75;;
38725;SDS011;24474;48.906;8.808;2024-02-23T07:53:35;1.65;;;0.90;;
38725;SDS011;24474;48.906;8.808;2024-02-23T07:56:02;3.10;;;1.15;;
38725;SDS011;24474;48.906;8.808;2024-02-23T07:58:28;3.33;;;1.00;;
38725;SDS011;24474;48.906;8.808;2024-02-23T08:00:55;3.08;;;0.80;;
38725;SDS011;24474;48.906;8.808;2024-02-23T08:03:21;2.55;;;0.80;;
38725;SDS011;24474;48.906;8.808;2024-02-23T08:05:47;1.75;;;0.80;;
38725;SDS011;24474;48.906;8.808;2024-02-23T08:08:13;2.70;;;0.80;;
38725;SDS011;24474;48.906;8.808;2024-02-23T08:10:39;1.95;;;0.88;;
38725;SDS011;24474;48.906;8.808;2024-02-23T08:13:04;2.10;;;1.00;;
38725;SDS011;24474;48.906;8.808;2024-02-23T08:15:30;1.80;;;0.80;;
38725;SDS011;24474;48.906;8.808;2024-02-23T08:17:56;2.60;;;0.85;;
38725;SDS011;24474;48.906;8.808;2024-02-23T08:20:21;5.05;;;1.00;;
38725;SDS011;24474;48.906;8.808;2024-02-23T08:22:47;2.53;;;1.00;;
38725;SDS011;24474;48.906;8.808;2024-02-23T08:25:13;2.85;;;0.98;;
38725;SDS011;24474;48.906;8.808;2024-02-23T08:27:40;2.45;;;1.00;;
38725;SDS011;24474;48.906;8.808;2024-02-23T08:30:06;5.30;;;0.90;;
38725;SDS011;24474;48.906;8.808;2024-02-23T08:32:32;4.18;;;1.08;;
38725;SDS011;24474;48.906;8.808;2024-02-23T08:34:58;2.90;;;1.00;;
38725;SDS011;24474;48.906;8.808;2024-02-23T08:37:25;4.38;;;1.10;;
38725;SDS011;24474;48.906;8.808;2024-02-23T08:39:51;3.17;;;0.80;;
38725;SDS011;24474;48.906;8.808;2024-02-23T08:42:18;1.83;;;0.65;;
38725;SDS011;24474;48.906;8.808;2024-02-23T08:44:43;3.30;;;0.75;;
38725;SDS011;24474;48.906;8.808;2024-02-23T08:47:09;4.20;;;0.90;;
38725;SDS011;24474;48.906;8.808;2024-02-23T08:49:34;3.10;;;0.80;;
38725;SDS011;24474;48.906;8.808;2024-02-23T08:52:00;3.05;;;0.90;;
38725;SDS011;24474;48.906;8.808;2024-02-23T08:54:27;2.95;;;0.80;;
38725;SDS011;24474;48.906;8.808;2024-02-23T08:56:53;1.63;;;0.50;;
38725;SDS011;24474;48.906;8.808;2024-02-23T08:59:18;4.22;;;1.05;;
38725;SDS011;24474;48.906;8.808;2024-02-23T09:01:46;1.80;;;1.00;;
38725;SDS011;24474;48.906;8.808;2024-02-23T09:04:13;4.78;;;1.10;;
38725;SDS011;24474;48.906;8.808;2024-02-23T09:06:40;4.60;;;1.10;;
38725;SDS011;24474;48.906;8.808;2024-02-23T09:09:06;2.65;;;0.90;;
38725;SDS011;24474;48.906;8.808;2024-02-23T09:11:31;2.42;;;0.70;;
38725;SDS011;24474;48.906;8.808;2024-02-23T09:13:57;2.03;;;0.70;;
38725;SDS011;24474;48.906;8.808;2024-02-23T09:16:34;2.50;;;1.00;;
38725;SDS011;24474;48.906;8.808;2024-02-23T09:19:02;3.10;;;0.90;;
38725;SDS011;24474;48.906;8.808;2024-02-23T09:21:29;1.90;;;0.50;;
38725;SDS011;24474;48.906;8.808;2024-02-23T09:23:56;2.28;;;0.82;;
38725;SDS011;24474;48.906;8.808;2024-02-23T09:26:22;2.70;;;0.75;;
38725;SDS011;24474;48.906;8.808;2024-02-23T09:28:49;3.15;;;0.82;;
38725;SDS011;24474;48.906;8.808;2024-02-23T09:31:15;2.25;;;0.70;;
38725;SDS011;24474;48.906;8.808;2024-02-23T09:33:41;4.20;;;1.10;;
38725;SDS011;24474;48.906;8.808;2024-02-23T09:36:08;3.75;;;1.20;;
38725;SDS011;24474;48.906;8.808;2024-02-23T09:38:35;3.78;;;0.98;;
38725;SDS011;24474;48.906;8.808;2024-02-23T09:41:03;2.80;;;0.63;;
38725;SDS011;24474;48.906;8.808;2024-02-23T09:43:41;4.07;;;1.20;;
38725;SDS011;24474;48.906;8.808;2024-02-23T09:46:10;3.65;;;1.10;;
38725;SDS011;24474;48.906;8.808;2024-02-23T09:48:42;5.07;;;1.00;;
38725;SDS011;24474;48.906;8.808;2024-02-23T09:51:08;3.88;;;1.30;;
38725;SDS011;24474;48.906;8.808;2024-02-23T09:53:36;2.88;;;0.90;;
38725;SDS011;24474;48.906;8.808;2024-02-23T09:56:03;3.75;;;0.90;;
38725;SDS011;24474;48.906;8.808;2024-02-23T09:58:33;5.30;;;1.00;;
38725;SDS011;24474;48.906;8.808;2024-02-23T10:01:07;5.90;;;0.95;;
38725;SDS011;24474;48.906;8.808;2024-02-23T10:03:54;4.00;;;0.90;;
38725;SDS011;24474;48.906;8.808;2024-02-23T10:06:33;4.90;;;0.90;;
38725;SDS011;24474;48.906;8.808;2024-02-23T10:08:59;3.00;;;1.00;;
38725;SDS011;24474;48.906;8.808;2024-02-23T10:11:25;5.20;;;0.82;;
38725;SDS011;24474;48.906;8.808;2024-02-23T10:13:53;4.40;;;0.98;;
38725;SDS011;24474;48.906;8.808;2024-02-23T10:16:20;3.45;;;1.00;;
38725;SDS011;24474;48.906;8.808;2024-02-23T10:18:50;3.15;;;0.80;;
38725;SDS011;24474;48.906;8.808;2024-02-23T10:21:16;4.15;;;1.00;;
38725;SDS011;24474;48.906;8.808;2024-02-23T10:23:47;4.38;;;0.70;;
38725;SDS011;24474;48.906;8.808;2024-02-23T10:26:15;2.97;;;0.70;;
38725;SDS011;24474;48.906;8.808;2024-02-23T10:28:45;1.83;;;0.57;;
38725;SDS011;24474;48.906;8.808;2024-02-23T10:31:17;4.18;;;0.80;;
38725;SDS011;24474;48.906;8.808;2024-02-23T10:33:44;3.30;;;0.75;;
38725;SDS011;24474;48.906;8.808;2024-02-23T10:36:09;2.47;;;0.73;;
38725;SDS011;24474;48.906;8.808;2024-02-23T10:41:08;1.65;;;0.57;;
38725;SDS011;24474;48.906;8.808;2024-02-23T10:43:46;3.92;;;0.70;;
38725;SDS011;24474;48.906;8.808;2024-02-23T10:46:15;4.75;;;0.95;;
38725;SDS011;24474;48.906;8.808;2024-02-23T10:48:41;4.05;;;0.70;;
38725;SDS011;24474;48.906;8.808;2024-02-23T10:51:07;2.95;;;0.90;;
38725;SDS011;24474;48.906;8.808;2024-02-23T10:53:36;2.25;;;0.70;;
38725;SDS011;24474;48.906;8.808;2024-02-23T10:56:04;5.70;;;0.98;;
38725;SDS011;24474;48.906;8.808;2024-02-23T10:58:41;3.13;;;0.88;;
38725;SDS011;24474;48.906;8.808;2024-02-23T11:01:54;6.68;;;1.13;;
38725;SDS011;24474;48.906;8.808;2024-02-23T11:04:27;5.97;;;1.08;;
38725;SDS011;24474;48.906;8.808;2024-02-23T11:06:59;3.78;;;0.90;;
38725;SDS011;24474;48.906;8.808;2024-02-23T11:09:31;4.20;;;1.02;;
38725;SDS011;24474;48.906;8.808;2024-02-23T11:11:58;5.65;;;1.10;;
38725;SDS011;24474;48.906;8.808;2024-02-23T11:14:37;5.38;;;1.52;;
38725;SDS011;24474;48.906;8.808;2024-02-23T11:17:04;4.90;;;1.65;;
38725;SDS011;24474;48.906;8.808;2024-02-23T11:19:38;2.80;;;0.90;;
38725;SDS011;24474;48.906;8.808;2024-02-23T11:22:09;3.83;;;0.93;;
38725;SDS011;24474;48.906;8.808;2024-02-23T11:24:41;2.72;;;1.10;;
38725;SDS011;24474;48.906;8.808;2024-02-23T11:27:24;3.42;;;1.02;;
38725;SDS011;24474;48.906;8.808;2024-02-23T11:30:06;2.78;;;0.77;;
38725;SDS011;24474;48.906;8.808;2024-02-23T11:32:40;5.68;;;1.40;;
38725;SDS011;24474;48.906;8.808;2024-02-23T11:35:12;4.85;;;1.40;;
38725;SDS011;24474;48.906;8.808;2024-02-23T11:40:23;5.75;;;1.40;;
38725;SDS011;24474;48.906;8.808;2024-02-23T11:42:51;6.05;;;1.55;;
38725;SDS011;24474;48.906;8.808;2024-02-23T11:45:19;3.67;;;1.35;;
38725;SDS011;24474;48.906;8.808;2024-02-23T11:47:45;3.65;;;1.30;;
38725;SDS011;24474;48.906;8.808;2024-02-23T11:50:10;3.58;;;1.08;;
38725;SDS011;24474;48.906;8.808;2024-02-23T11:52:40;5.03;;;1.23;;
38725;SDS011;24474;48.906;8.808;2024-02-23T11:55:06;3.58;;;1.27;;
38725;SDS011;24474;48.906;8.808;2024-02-23T11:57:36;6.05;;;1.42;;
38725;SDS011;24474;48.906;8.808;2024-02-23T12:00:03;3.80;;;1.45;;
38725;SDS011;24474;48.906;8.808;2024-02-23T12:02:34;5.30;;;1.50;;
38725;SDS011;24474;48.906;8.808;2024-02-23T12:05:01;4.10;;;1.20;;
38725;SDS011;24474;48.906;8.808;2024-02-23T12:07:31;6.30;;;1.10;;
38725;SDS011;24474;48.906;8.808;2024-02-23T12:09:58;4.83;;;1.53;;
38725;SDS011;24474;48.906;8.808;2024-02-23T12:12:25;6.13;;;1.33;;
38725;SDS011;24474;48.906;8.808;2024-02-23T12:14:51;4.35;;;1.30;;
38725;SDS011;24474;48.906;8.808;2024-02-23T12:17:17;4.47;;;1.88;;
38725;SDS011;24474;48.906;8.808;2024-02-23T12:19:44;8.68;;;2.50;;
38725;SDS011;24474;48.906;8.808;2024-02-23T12:22:11;7.65;;;2.00;;
38725;SDS011;24474;48.906;8.808;2024-02-23T12:24:39;5.15;;;2.40;;
38725;SDS011;24474;48.906;8.808;2024-02-23T12:27:09;12.90;;;4.13;;
38725;SDS011;24474;48.906;8.808;2024-02-23T12:29:34;8.55;;;1.98;;
38725;SDS011;24474;48.906;8.808;2024-02-23T12:32:05;5.82;;;1.80;;
38725;SDS011;24474;48.906;8.808;2024-02-23T12:34:35;7.70;;;2.90;;
38725;SDS011;24474;48.906;8.808;2024-02-23T12:37:04;6.78;;;2.35;;
38725;SDS011;24474;48.906;8.808;2024-02-23T12:39:30;7.05;;;2.50;;
38725;SDS011;24474;48.906;8.808;2024-02-23T12:42:29;4.63;;;1.58;;
38725;SDS011;24474;48.906;8.808;2024-02-23T12:44:54;5.88;;;1.38;;
38725;SDS011;24474;48.906;8.808;2024-02-23T12:47:20;4.05;;;1.40;;
38725;SDS011;24474;48.906;8.808;2024-02-23T12:49:46;3.65;;;1.45;;
38725;SDS011;24474;48.906;8.808;2024-02-23T12:52:12;5.80;;;1.25;;
38725;SDS011;24474;48.906;8.808;2024-02-23T12:54:42;4.00;;;1.40;;
38725;SDS011;24474;48.906;8.808;2024-02-23T12:57:07;5.13;;;1.20;;
38725;SDS011;24474;48.906;8.808;2024-02-23T12:59:33;3.75;;;1.30;;
38725;SDS011;24474;48.906;8.808;2024-02-23T13:01:59;5.38;;;1.48;;
38725;SDS011;24474;48.906;8.808;2024-02-23T13:04:25;4.53;;;1.20;;
38725;SDS011;24474;48.906;8.808;2024-02-23T13:06:50;3.95;;;1.30;;
38725;SDS011;24474;48.906;8.808;2024-02-23T13:09:16;5.72;;;1.38;;
38725;SDS011;24474;48.906;8.808;2024-02-23T13:11:41;4.78;;;1.38;;
38725;SDS011;24474;48.906;8.808;2024-02-23T13:14:08;5.03;;;1.45;;
38725;SDS011;24474;48.906;8.808;2024-02-23T13:16:36;4.68;;;1.35;;
38725;SDS011;24474;48.906;8.808;2024-02-23T13:19:02;4.22;;;1.05;;
38725;SDS011;24474;48.906;8.808;2024-02-23T13:21:27;3.80;;;1.70;;
38725;SDS011;24474;48.906;8.808;2024-02-23T13:23:54;6.78;;;1.50;;
38725;SDS011;24474;48.906;8.808;2024-02-23T13:26:19;5.15;;;1.30;;
38725;SDS011;24474;48.906;8.808;2024-02-23T13:28:45;5.85;;;1.30;;
38725;SDS011;24474;48.906;8.808;2024-02-23T13:31:10;4.20;;;1.20;;
38725;SDS011;24474;48.906;8.808;2024-02-23T13:33:38;4.05;;;1.50;;
38725;SDS011;24474;48.906;8.808;2024-02-23T13:36:04;7.43;;;1.65;;
38725;SDS011;24474;48.906;8.808;2024-02-23T13:38:33;5.82;;;1.52;;
38725;SDS011;24474;48.906;8.808;2024-02-23T13:41:03;5.28;;;1.23;;
38725;SDS011;24474;48.906;8.808;2024-02-23T13:43:31;8.18;;;1.50;;
38725;SDS011;24474;48.906;8.808;2024-02-23T13:46:02;6.43;;;1.10;;
38725;SDS011;24474;48.906;8.808;2024-02-23T13:48:29;4.32;;;1.38;;
38725;SDS011;24474;48.906;8.808;2024-02-23T13:50:55;8.85;;;1.23;;
38725;SDS011;24474;48.906;8.808;2024-02-23T13:53:21;8.30;;;1.60;;
38725;SDS011;24474;48.906;8.808;2024-02-23T13:55:49;4.38;;;1.27;;
38725;SDS011;24474;48.906;8.808;2024-02-23T13:58:15;6.93;;;1.20;;
38725;SDS011;24474;48.906;8.808;2024-02-23T14:00:42;4.88;;;1.27;;
38725;SDS011;24474;48.906;8.808;2024-02-23T14:03:10;5.65;;;1.30;;
38725;SDS011;24474;48.906;8.808;2024-02-23T14:05:43;4.00;;;1.15;;
38725;SDS011;24474;48.906;8.808;2024-02-23T14:08:10;5.82;;;1.40;;
38725;SDS011;24474;48.906;8.808;2024-02-23T14:10:36;7.93;;;1.67;;
38725;SDS011;24474;48.906;8.808;2024-02-23T14:13:02;6.00;;;1.60;;
38725;SDS011;24474;48.906;8.808;2024-02-23T14:15:28;7.15;;;1.50;;
38725;SDS011;24474;48.906;8.808;2024-02-23T14:17:57;6.60;;;1.50;;
38725;SDS011;24474;48.906;8.808;2024-02-23T14:20:24;3.55;;;1.20;;
38725;SDS011;24474;48.906;8.808;2024-02-23T14:22:50;6.03;;;1.77;;
38725;SDS011;24474;48.906;8.808;2024-02-23T14:25:17;8.43;;;1.83;;
38725;SDS011;24474;48.906;8.808;2024-02-23T14:27:43;5.18;;;1.60;;
38725;SDS011;24474;48.906;8.808;2024-02-23T14:30:09;4.45;;;1.65;;
38725;SDS011;24474;48.906;8.808;2024-02-23T14:32:37;5.63;;;1.35;;
38725;SDS011;24474;48.906;8.808;2024-02-23T14:35:08;4.80;;;1.42;;
38725;SDS011;24474;48.906;8.808;2024-02-23T14:37:34;9.10;;;1.45;;
38725;SDS011;24474;48.906;8.808;2024-02-23T14:40:00;6.05;;;1.40;;
38725;SDS011;24474;48.906;8.808;2024-02-23T14:42:25;8.48;;;1.25;;
38725;SDS011;24474;48.906;8.808;2024-02-23T14:44:51;6.03;;;1.58;;
38725;SDS011;24474;48.906;8.808;2024-02-23T14:47:16;3.67;;;1.23;;
38725;SDS011;24474;48.906;8.808;2024-02-23T14:49:42;9.43;;;2.63;;
38725;SDS011;24474;48.906;8.808;2024-02-23T14:52:08;5.35;;;2.40;;